Time;durP1;ratioP1;P1;durP2;ratioP2;P2;SDS_P1;SDS_P2;PMS_P1;PMS_P2;Temp;Humidity;BMP_temperature;BMP_pressure;BME280_temperature;BME280_humidity;BME280_pressure;Samples;Min_cycle;Max_cycle;Signal;HPM_P1;HPM_P2
2023/09/21 00:00:25;;;;;;;1.90;1.67;;;14.70;99.90;;;;;;6301709;28;20479;-77
2023/09/21 00:03:28;;;;;;;1.70;1.38;;;14.70;99.90;;;;;;6302145;28;20056;-79
2023/09/21 00:06:31;;;;;;;3.72;2.22;;;14.70;99.90;;;;;;6292644;28;20045;-79
2023/09/21 00:09:32;;;;;;;1.77;1.50;;;14.70;99.90;;;;;;6301216;28;20055;-77
2023/09/21 00:12:35;;;;;;;3.05;1.95;;;14.60;99.90;;;;;;6300373;28;20048;-78
2023/09/21 00:15:38;;;;;;;1.50;1.40;;;14.60;99.90;;;;;;6300809;28;20053;-78
2023/09/21 00:18:42;;;;;;;1.95;1.58;;;14.60;99.90;;;;;;6300598;28;20068;-77
2023/09/21 00:21:46;;;;;;;3.63;2.38;;;14.50;99.90;;;;;;6300749;28;20055;-80
2023/09/21 00:24:47;;;;;;;2.45;1.60;;;14.40;99.90;;;;;;6300465;28;20173;-79
2023/09/21 00:27:49;;;;;;;5.38;2.60;;;14.40;99.90;;;;;;6301245;28;20056;-79
2023/09/21 00:30:57;;;;;;;2.20;1.77;;;14.40;99.90;;;;;;6300473;28;20051;-79
2023/09/21 00:33:59;;;;;;;2.30;1.80;;;14.40;99.90;;;;;;6300728;28;20055;-77
2023/09/21 00:37:02;;;;;;;2.67;1.55;;;14.40;99.90;;;;;;6300438;28;20493;-77
2023/09/21 00:40:13;;;;;;;2.38;1.67;;;14.40;99.90;;;;;;6301453;28;20044;-79
2023/09/21 00:43:21;;;;;;;4.20;2.30;;;14.30;99.90;;;;;;6299677;28;20045;-78
2023/09/21 00:46:27;;;;;;;3.00;2.33;;;14.30;99.90;;;;;;6299749;28;20044;-77
2023/09/21 00:49:31;;;;;;;2.10;1.83;;;14.30;99.90;;;;;;6295678;28;20090;-77
2023/09/21 00:52:34;;;;;;;2.45;1.75;;;14.30;99.90;;;;;;6291824;28;20048;-78
2023/09/21 00:55:39;;;;;;;3.97;2.08;;;14.30;99.90;;;;;;6300334;28;20048;-79
2023/09/21 00:58:44;;;;;;;3.53;2.63;;;14.40;99.90;;;;;;6300361;28;20408;-78
2023/09/21 01:01:48;;;;;;;2.72;2.08;;;14.40;99.90;;;;;;6299225;28;20044;-79
2023/09/21 01:04:50;;;;;;;2.03;1.80;;;14.40;99.90;;;;;;6297939;28;20049;-77
2023/09/21 01:07:55;;;;;;;2.60;2.40;;;14.50;99.90;;;;;;6291922;28;20052;-79
2023/09/21 01:10:58;;;;;;;2.00;1.30;;;14.50;99.90;;;;;;6297165;28;20047;-77
2023/09/21 01:13:59;;;;;;;1.92;1.80;;;14.60;99.90;;;;;;6299757;28;20048;-78
2023/09/21 01:17:01;;;;;;;2.92;1.75;;;14.60;99.90;;;;;;6297306;28;20196;-78
2023/09/21 01:20:18;;;;;;;3.13;1.73;;;14.70;99.90;;;;;;6298746;28;20515;-79
2023/09/21 01:23:26;;;;;;;4.25;2.45;;;14.60;99.90;;;;;;6299075;28;20120;-78
2023/09/21 01:26:29;;;;;;;;;;;14.70;99.90;;;;;;6299846;28;20041;-77
2023/09/21 01:29:32;;;;;;;2.80;1.48;;;14.70;99.90;;;;;;6300506;28;19921;-79
2023/09/21 01:32:34;;;;;;;4.78;2.28;;;14.70;99.90;;;;;;6298271;28;20044;-78
2023/09/21 01:35:37;;;;;;;2.20;1.98;;;14.70;99.90;;;;;;6298765;28;20063;-77
2023/09/21 01:38:40;;;;;;;2.53;1.63;;;14.70;99.90;;;;;;6298615;28;20106;-78
2023/09/21 01:41:44;;;;;;;6.07;2.15;;;14.70;99.90;;;;;;6298391;28;20044;-78
2023/09/21 01:44:48;;;;;;;6.20;1.95;;;14.80;99.90;;;;;;6298637;28;20144;-78
2023/09/21 01:47:50;;;;;;;2.53;2.20;;;14.80;99.90;;;;;;6299475;28;20131;-80
2023/09/21 01:50:57;;;;;;;1.83;1.55;;;14.80;99.90;;;;;;6298539;28;20405;-78
2023/09/21 01:53:58;;;;;;;2.20;1.50;;;14.90;99.90;;;;;;6298464;28;20064;-79
2023/09/21 01:57:05;;;;;;;2.85;1.67;;;14.80;99.90;;;;;;6297525;28;20062;-79
2023/09/21 02:00:21;;;;;;;2.17;1.90;;;14.90;99.90;;;;;;6298185;28;20521;-77
2023/09/21 02:03:28;;;;;;;4.47;2.60;;;14.90;99.90;;;;;;6298357;28;20052;-78
2023/09/21 02:06:30;;;;;;;2.95;1.85;;;15.10;99.90;;;;;;6297940;28;20335;-78
2023/09/21 02:09:34;;;;;;;2.42;1.70;;;15.10;99.90;;;;;;6298752;28;20045;-78
2023/09/21 02:12:38;;;;;;;3.05;1.92;;;15.10;99.90;;;;;;6297624;28;20071;-77
2023/09/21 02:15:40;;;;;;;2.88;2.03;;;15.10;99.90;;;;;;6298903;28;20052;-78
2023/09/21 02:18:42;;;;;;;1.65;1.55;;;15.10;99.90;;;;;;6298815;28;20128;-79
2023/09/21 02:21:44;;;;;;;1.98;1.50;;;15.20;99.90;;;;;;6298189;28;20048;-78
2023/09/21 02:24:46;;;;;;;2.63;1.52;;;15.20;99.90;;;;;;6298543;28;20052;-77
2023/09/21 02:27:49;;;;;;;3.53;1.88;;;15.30;99.90;;;;;;6298970;28;20183;-79
2023/09/21 02:30:51;;;;;;;1.80;1.60;;;15.30;99.90;;;;;;6300336;28;20048;-78
2023/09/21 02:33:53;;;;;;;5.40;2.47;;;15.40;99.90;;;;;;6302513;28;20051;-78
2023/09/21 02:36:55;;;;;;;2.10;1.90;;;15.40;99.90;;;;;;6302848;28;20045;-77
2023/09/21 02:39:57;;;;;;;2.58;1.98;;;15.50;99.90;;;;;;6304018;28;20091;-79
2023/09/21 02:43:00;;;;;;;2.92;2.13;;;15.50;99.90;;;;;;6302938;28;20055;-78
2023/09/21 02:46:01;;;;;;;3.10;2.20;;;15.60;99.90;;;;;;6303326;28;20047;-80
2023/09/21 02:49:04;;;;;;;1.80;1.50;;;15.60;99.90;;;;;;6302458;28;20040;-80
2023/09/21 02:52:06;;;;;;;3.38;3.08;;;15.60;99.90;;;;;;6303980;28;20494;-79
2023/09/21 02:55:08;;;;;;;4.40;3.00;;;15.70;99.90;;;;;;6303781;28;20049;-80
2023/09/21 02:58:13;;;;;;;1.92;1.65;;;15.70;99.90;;;;;;6303978;28;20603;-79
2023/09/21 03:01:15;;;;;;;2.80;2.10;;;15.80;99.90;;;;;;6303233;28;20539;-78
2023/09/21 03:04:17;;;;;;;5.15;1.75;;;15.90;99.90;;;;;;6303279;28;20443;-80
2023/09/21 03:07:21;;;;;;;3.05;1.55;;;15.80;99.90;;;;;;6303890;28;20040;-79
2023/09/21 03:10:25;;;;;;;6.95;2.05;;;15.90;99.90;;;;;;6303675;28;20409;-80
2023/09/21 03:13:30;;;;;;;4.82;2.10;;;15.90;99.90;;;;;;6303577;28;20053;-79
2023/09/21 03:16:32;;;;;;;2.95;1.50;;;15.90;99.90;;;;;;6303224;28;20056;-79
2023/09/21 03:19:34;;;;;;;2.83;1.50;;;16.00;99.90;;;;;;6303785;28;20058;-80
2023/09/21 03:22:37;;;;;;;3.30;1.80;;;15.90;99.90;;;;;;6311537;28;20044;-80
2023/09/21 03:25:41;;;;;;;3.33;1.73;;;15.90;99.90;;;;;;6303252;28;20048;-80
2023/09/21 03:28:47;;;;;;;2.50;2.28;;;15.80;99.90;;;;;;6304426;28;20044;-80
2023/09/21 03:31:48;;;;;;;1.83;1.33;;;15.80;99.90;;;;;;6304294;28;20056;-80
2023/09/21 03:34:51;;;;;;;2.75;2.00;;;15.80;99.90;;;;;;6302580;28;20067;-79
2023/09/21 03:37:54;;;;;;;4.07;1.92;;;15.80;99.90;;;;;;6303429;28;20650;-80
2023/09/21 03:40:58;;;;;;;7.38;2.13;;;15.70;99.90;;;;;;6302893;28;20065;-78
2023/09/21 03:44:01;;;;;;;2.53;1.90;;;15.70;99.90;;;;;;6302959;28;20049;-77
2023/09/21 03:47:04;;;;;;;2.15;1.60;;;15.80;99.90;;;;;;6303089;28;20044;-80
2023/09/21 03:50:11;;;;;;;2.47;2.10;;;15.80;99.90;;;;;;6302516;28;20186;-79
2023/09/21 03:53:13;;;;;;;1.67;1.58;;;15.80;99.90;;;;;;6301051;28;20051;-79
2023/09/21 03:56:15;;;;;;;1.65;1.38;;;15.80;99.90;;;;;;6300980;28;20049;-79
2023/09/21 03:59:18;;;;;;;3.85;2.13;;;15.80;99.90;;;;;;6301227;28;20132;-78
2023/09/21 04:02:22;;;;;;;2.38;1.90;;;15.70;99.90;;;;;;6300174;28;20110;-78
2023/09/21 04:05:29;;;;;;;2.17;1.90;;;15.80;99.90;;;;;;6295932;28;20555;-79
2023/09/21 04:08:32;;;;;;;3.42;2.20;;;15.80;99.90;;;;;;6295826;28;20055;-78
2023/09/21 04:11:34;;;;;;;1.75;1.63;;;15.80;99.90;;;;;;6298606;28;20397;-78
2023/09/21 04:14:37;;;;;;;3.35;2.22;;;15.90;99.90;;;;;;6299031;28;20065;-78
2023/09/21 04:17:40;;;;;;;3.55;2.40;;;15.90;99.90;;;;;;6298397;28;20087;-78
2023/09/21 04:20:44;;;;;;;3.83;2.08;;;15.90;99.90;;;;;;6299488;28;20088;-77
2023/09/21 04:23:46;;;;;;;2.47;1.73;;;16.00;99.90;;;;;;6293342;28;20381;-79
2023/09/21 04:26:48;;;;;;;2.10;1.73;;;15.90;99.90;;;;;;6300131;28;20048;-79
2023/09/21 04:29:51;;;;;;;2.72;1.95;;;15.90;99.90;;;;;;6300560;28;20058;-79
2023/09/21 04:32:53;;;;;;;2.92;1.85;;;16.00;99.90;;;;;;6300333;28;20449;-76
2023/09/21 04:35:55;;;;;;;3.08;2.13;;;15.90;99.90;;;;;;6300947;28;20056;-77
2023/09/21 04:38:56;;;;;;;2.40;2.20;;;16.00;99.90;;;;;;6301441;28;20040;-77
2023/09/21 04:41:59;;;;;;;2.75;2.00;;;15.90;99.90;;;;;;6301668;28;20049;-77
2023/09/21 04:45:03;;;;;;;4.57;2.03;;;15.80;99.90;;;;;;6299625;28;20497;-77
2023/09/21 04:48:05;;;;;;;3.63;2.45;;;15.80;99.90;;;;;;6299590;28;20440;-77
2023/09/21 04:51:08;;;;;;;3.28;1.98;;;15.80;99.90;;;;;;6299283;28;20059;-78
2023/09/21 04:54:10;;;;;;;2.30;1.80;;;15.80;99.90;;;;;;6297536;28;20040;-78
2023/09/21 04:57:11;;;;;;;4.70;1.83;;;15.70;99.90;;;;;;6298570;28;20063;-77
2023/09/21 05:00:16;;;;;;;4.60;2.17;;;15.70;99.90;;;;;;6298659;28;20047;-77
2023/09/21 05:03:18;;;;;;;2.40;1.92;;;15.60;99.90;;;;;;6299562;28;20195;-78
2023/09/21 05:06:21;;;;;;;3.50;2.88;;;15.60;99.90;;;;;;6299778;28;20420;-78
2023/09/21 05:09:23;;;;;;;4.05;2.08;;;15.60;99.90;;;;;;6301044;28;20037;-78
2023/09/21 05:12:27;;;;;;;2.10;1.80;;;15.60;99.90;;;;;;6301119;28;20053;-77
2023/09/21 05:15:30;;;;;;;6.13;2.63;;;15.70;99.90;;;;;;6301903;28;20603;-77
2023/09/21 05:18:32;;;;;;;3.67;3.20;;;15.80;99.90;;;;;;6301497;28;20441;-77
2023/09/21 05:21:34;;;;;;;6.13;2.78;;;15.80;99.90;;;;;;6299686;28;20075;-77
2023/09/21 05:24:36;;;;;;;5.53;2.63;;;15.80;99.90;;;;;;6299184;28;20056;-77
2023/09/21 05:27:38;;;;;;;4.47;3.67;;;15.90;99.90;;;;;;6299923;28;20488;-78
2023/09/21 05:30:41;;;;;;;5.78;2.70;;;16.00;99.90;;;;;;6300143;28;20052;-77
2023/09/21 05:33:43;;;;;;;9.32;3.90;;;16.00;99.90;;;;;;6302152;28;20066;-78
2023/09/21 05:36:46;;;;;;;7.80;4.40;;;16.10;99.90;;;;;;6300048;28;20524;-77
2023/09/21 05:39:48;;;;;;;6.97;3.17;;;16.20;99.90;;;;;;6300315;28;20468;-77
2023/09/21 05:42:50;;;;;;;6.05;3.42;;;16.20;99.90;;;;;;6299912;28;20048;-78
2023/09/21 05:45:53;;;;;;;4.53;2.85;;;16.30;99.90;;;;;;6299759;28;20044;-78
2023/09/21 05:48:54;;;;;;;4.18;2.85;;;16.40;99.90;;;;;;6299715;28;20060;-77
2023/09/21 05:51:56;;;;;;;4.43;2.72;;;16.40;99.90;;;;;;6301165;28;20068;-77
2023/09/21 05:54:59;;;;;;;5.18;3.22;;;16.50;99.90;;;;;;6299829;28;20048;-77
2023/09/21 05:58:01;;;;;;;9.80;5.13;;;16.50;99.90;;;;;;6300292;28;20130;-76
2023/09/21 06:01:04;;;;;;;8.40;4.03;;;16.50;99.90;;;;;;6299372;28;20117;-78
2023/09/21 06:04:06;;;;;;;7.35;3.00;;;16.60;99.90;;;;;;6299832;28;20049;-77
2023/09/21 06:07:08;;;;;;;5.72;2.75;;;16.70;99.90;;;;;;6299165;28;20049;-77
2023/09/21 06:10:10;;;;;;;7.38;3.40;;;16.70;99.90;;;;;;6271697;28;20389;-78
2023/09/21 06:13:12;;;;;;;5.28;2.83;;;16.80;99.90;;;;;;6286351;28;20056;-77
2023/09/21 06:16:15;;;;;;;4.13;3.72;;;16.90;99.90;;;;;;6294797;28;20049;-75
2023/09/21 06:19:17;;;;;;;3.38;2.33;;;17.00;99.90;;;;;;6298227;28;20497;-78
2023/09/21 06:22:19;;;;;;;8.13;3.83;;;17.00;99.90;;;;;;6299220;28;20449;-77
2023/09/21 06:25:21;;;;;;;2.80;2.53;;;17.00;99.90;;;;;;6297949;28;20501;-77
2023/09/21 06:28:22;;;;;;;7.35;3.80;;;17.10;99.90;;;;;;6297995;28;20045;-77
2023/09/21 06:31:25;;;;;;;6.93;3.35;;;17.10;99.90;;;;;;6286600;28;20048;-77
2023/09/21 06:34:27;;;;;;;4.82;3.45;;;17.20;99.90;;;;;;6298167;28;20416;-77
2023/09/21 06:37:30;;;;;;;7.72;3.50;;;17.20;99.90;;;;;;6297100;28;20059;-78
2023/09/21 06:40:36;;;;;;;8.63;3.78;;;17.30;99.90;;;;;;6297941;28;20044;-77
2023/09/21 06:43:42;;;;;;;6.72;2.97;;;17.40;99.90;;;;;;6296588;28;20509;-77
2023/09/21 06:46:45;;;;;;;11.10;3.75;;;17.50;99.90;;;;;;6298047;28;20479;-77
2023/09/21 06:49:47;;;;;;;4.03;2.67;;;17.60;99.90;;;;;;6298030;28;20048;-77
2023/09/21 06:52:51;;;;;;;5.65;3.25;;;17.70;99.90;;;;;;6298678;28;20053;-77
2023/09/21 06:55:54;;;;;;;2.47;2.00;;;17.80;99.90;;;;;;6291215;28;20163;-78
2023/09/21 06:58:56;;;;;;;4.00;3.25;;;17.80;99.90;;;;;;6299563;28;20090;-78
2023/09/21 07:02:00;;;;;;;3.35;2.47;;;17.90;99.90;;;;;;6298441;28;20467;-78
2023/09/21 07:05:01;;;;;;;7.40;3.67;;;17.90;99.90;;;;;;6299268;28;20053;-77
2023/09/21 07:08:03;;;;;;;5.03;3.30;;;18.00;99.90;;;;;;6299077;28;20044;-77
2023/09/21 07:11:06;;;;;;;3.53;2.35;;;18.00;99.90;;;;;;6299704;28;20075;-78
2023/09/21 07:14:07;;;;;;;3.42;3.00;;;18.00;99.90;;;;;;6297515;28;20044;-76
2023/09/21 07:17:11;;;;;;;3.17;2.72;;;17.90;99.90;;;;;;6300420;28;20428;-78
2023/09/21 07:20:13;;;;;;;4.07;3.25;;;17.90;99.90;;;;;;6304007;28;20048;-78
2023/09/21 07:23:15;;;;;;;4.40;2.58;;;18.00;99.90;;;;;;6300649;28;20055;-77
2023/09/21 07:26:17;;;;;;;3.22;2.58;;;18.00;99.90;;;;;;6302260;28;20133;-77
2023/09/21 07:29:18;;;;;;;3.75;2.55;;;18.00;99.90;;;;;;6303730;28;20167;-78
2023/09/21 07:32:21;;;;;;;4.00;2.33;;;18.10;99.90;;;;;;6302625;28;20055;-79
2023/09/21 07:35:23;;;;;;;4.10;2.58;;;18.20;99.90;;;;;;6303053;28;20052;-78
2023/09/21 07:38:27;;;;;;;2.63;2.30;;;18.20;99.90;;;;;;6302440;28;20059;-79
2023/09/21 07:41:28;;;;;;;3.92;2.30;;;18.30;99.90;;;;;;6303453;28;20102;-76
2023/09/21 07:44:30;;;;;;;3.25;2.38;;;18.40;99.90;;;;;;6302225;28;20052;-79
2023/09/21 07:47:33;;;;;;;2.58;2.30;;;18.50;99.90;;;;;;6295944;28;20044;-77
2023/09/21 07:50:36;;;;;;;4.88;1.83;;;18.60;99.90;;;;;;6292576;28;20488;-77
2023/09/21 07:53:40;;;;;;;6.15;2.85;;;18.70;99.90;;;;;;6297768;28;20049;-78
2023/09/21 07:56:42;;;;;;;3.03;2.60;;;18.80;99.90;;;;;;6299324;28;20051;-78
2023/09/21 07:59:44;;;;;;;4.45;3.00;;;18.90;99.90;;;;;;6301260;28;20055;-78
2023/09/21 08:02:47;;;;;;;7.22;3.15;;;18.90;99.90;;;;;;6298927;28;20048;-79
2023/09/21 08:05:49;;;;;;;3.05;2.53;;;19.00;99.90;;;;;;6301382;28;20041;-77
2023/09/21 08:08:52;;;;;;;4.75;3.00;;;19.00;99.90;;;;;;6301338;28;20052;-76
2023/09/21 08:11:53;;;;;;;4.03;3.03;;;18.90;99.90;;;;;;6300823;28;20501;-78
2023/09/21 08:14:55;;;;;;;3.63;2.80;;;19.00;99.90;;;;;;6290464;28;20049;-76
2023/09/21 08:18:00;;;;;;;6.95;3.55;;;19.00;99.90;;;;;;6300003;28;20043;-77
2023/09/21 08:21:03;;;;;;;5.03;3.28;;;19.00;99.90;;;;;;6301169;28;20055;-77
2023/09/21 08:24:05;;;;;;;8.40;4.35;;;19.00;99.90;;;;;;6298280;28;20053;-77
2023/09/21 08:27:07;;;;;;;9.00;5.72;;;19.10;99.90;;;;;;6300476;28;20052;-78
2023/09/21 08:30:09;;;;;;;6.60;2.63;;;19.20;99.90;;;;;;6300948;28;20072;-78
2023/09/21 08:33:12;;;;;;;4.75;3.50;;;19.20;99.90;;;;;;6300329;28;20432;-76
2023/09/21 08:36:15;;;;;;;5.50;3.47;;;19.30;99.90;;;;;;6299323;28;20048;-77
2023/09/21 08:39:17;;;;;;;4.75;2.33;;;19.30;99.90;;;;;;6300272;28;20611;-75
2023/09/21 08:42:19;;;;;;;5.45;3.15;;;19.30;99.90;;;;;;6293007;28;20428;-77
2023/09/21 08:45:23;;;;;;;2.97;2.15;;;19.30;99.90;;;;;;6296180;28;20048;-77
2023/09/21 08:48:27;;;;;;;5.03;2.55;;;19.40;99.90;;;;;;6292164;28;20041;-78
2023/09/21 08:51:32;;;;;;;4.28;3.17;;;19.50;99.90;;;;;;6297082;28;20056;-77
2023/09/21 08:54:34;;;;;;;11.35;3.67;;;19.60;99.90;;;;;;6298466;28;20086;-78
2023/09/21 08:57:37;;;;;;;5.38;3.78;;;19.70;99.90;;;;;;6299101;28;20048;-77
2023/09/21 09:00:40;;;;;;;5.47;2.42;;;19.90;99.90;;;;;;6299164;28;20047;-78
2023/09/21 09:03:43;;;;;;;11.45;3.55;;;20.00;99.90;;;;;;6299730;28;20051;-77
2023/09/21 09:06:46;;;;;;;6.30;3.63;;;20.10;99.90;;;;;;6298595;28;20048;-78
2023/09/21 09:09:47;;;;;;;3.80;2.28;;;20.30;99.90;;;;;;6299086;28;20094;-79
2023/09/21 09:12:56;;;;;;;4.15;2.58;;;20.40;99.90;;;;;;6297893;28;20552;-77
2023/09/21 09:15:59;;;;;;;9.95;3.38;;;20.50;99.90;;;;;;6298969;28;20052;-79
2023/09/21 09:19:05;;;;;;;3.70;2.00;;;20.60;99.90;;;;;;6290512;28;20051;-78
2023/09/21 09:22:06;;;;;;;6.22;2.97;;;20.80;99.90;;;;;;6298255;28;20037;-77
2023/09/21 09:25:10;;;;;;;4.63;2.30;;;21.00;99.90;;;;;;6300724;28;20055;-78
2023/09/21 09:28:12;;;;;;;4.57;2.65;;;21.10;99.90;;;;;;6298205;28;20052;-79
2023/09/21 09:31:14;;;;;;;3.85;2.47;;;21.40;99.90;;;;;;6298485;28;20053;-79
2023/09/21 09:34:19;;;;;;;3.95;1.92;;;21.50;99.90;;;;;;6297753;28;20695;-78
2023/09/21 09:37:21;;;;;;;3.88;2.17;;;21.70;99.90;;;;;;6297143;28;20040;-77
2023/09/21 09:40:24;;;;;;;6.22;1.73;;;22.00;99.90;;;;;;6297115;28;20043;-77
2023/09/21 09:43:30;;;;;;;2.53;2.20;;;22.30;99.90;;;;;;6298308;28;20056;-78
2023/09/21 09:46:35;;;;;;;2.72;2.00;;;22.50;99.90;;;;;;6298335;28;20049;-79
2023/09/21 09:49:40;;;;;;;2.85;1.60;;;22.80;99.90;;;;;;6296753;28;20048;-77
2023/09/21 09:52:50;;;;;;;3.63;2.17;;;22.90;99.90;;;;;;6297975;28;20440;-80
2023/09/21 09:55:53;;;;;;;5.70;1.88;;;23.00;99.90;;;;;;6301059;28;20051;-78
2023/09/21 09:58:57;;;;;;;6.72;3.50;;;23.10;99.90;;;;;;6301510;28;20051;-80
2023/09/21 10:02:00;;;;;;;3.75;1.85;;;23.10;99.90;;;;;;6300252;28;20076;-79
2023/09/21 10:05:04;;;;;;;2.58;1.55;;;23.30;99.90;;;;;;6301396;28;20049;-79
2023/09/21 10:08:08;;;;;;;2.70;1.45;;;23.40;99.90;;;;;;6301183;28;20167;-80
2023/09/21 10:11:13;;;;;;;5.00;1.30;;;23.50;99.90;;;;;;6301853;28;20505;-80
2023/09/21 10:14:16;;;;;;;8.05;2.13;;;23.60;99.90;;;;;;6299922;28;20478;-79
2023/09/21 10:17:27;;;;;;;1.75;1.63;;;23.60;99.90;;;;;;6300393;28;20059;-78
2023/09/21 10:20:32;;;;;;;13.73;11.93;;;23.60;99.90;;;;;;6300726;28;20056;-79
2023/09/21 10:23:34;;;;;;;2.35;1.95;;;23.60;99.90;;;;;;6300740;28;20048;-79
2023/09/21 10:26:38;;;;;;;10.10;3.47;;;23.60;99.90;;;;;;6300149;28;20048;-79
2023/09/21 10:29:40;;;;;;;2.40;1.83;;;23.70;99.90;;;;;;6300808;28;20482;-78
2023/09/21 10:32:43;;;;;;;6.50;1.85;;;23.80;99.90;;;;;;6300110;28;20052;-79
2023/09/21 10:35:49;;;;;;;7.05;2.53;;;24.00;99.90;;;;;;6301441;28;20418;-78
2023/09/21 10:39:24;;;;;;;3.38;2.97;;;24.20;99.90;;;;;;6301563;28;20048;-79
2023/09/21 10:42:34;;;;;;;5.32;2.40;;;24.20;99.90;;;;;;6301666;28;20117;-80
2023/09/21 10:45:54;;;;;;;6.78;2.75;;;24.40;99.90;;;;;;6301576;28;20041;-80
2023/09/21 10:49:08;;;;;;;2.65;1.90;;;24.50;99.90;;;;;;6308590;28;20055;-79
2023/09/21 10:52:12;;;;;;;4.72;3.10;;;24.70;99.90;;;;;;6300121;28;20052;-78
2023/09/21 10:55:16;;;;;;;3.28;1.75;;;25.00;99.90;;;;;;6302797;28;20048;-79
2023/09/21 10:58:18;;;;;;;3.22;1.30;;;25.30;99.90;;;;;;6302759;28;20167;-80
2023/09/21 11:01:21;;;;;;;2.00;1.17;;;25.50;99.50;;;;;;6301832;28;20467;-79
2023/09/21 11:04:23;;;;;;;2.28;1.70;;;25.70;98.50;;;;;;6301716;28;20078;-78
2023/09/21 11:07:26;;;;;;;1.63;1.13;;;25.80;98.00;;;;;;6302068;28;20062;-78
2023/09/21 11:10:28;;;;;;;6.65;2.00;;;26.20;97.50;;;;;;6302109;28;20064;-79
2023/09/21 11:13:30;;;;;;;7.38;2.63;;;26.50;96.80;;;;;;6300703;28;20056;-79
2023/09/21 11:16:32;;;;;;;2.65;1.40;;;26.80;95.90;;;;;;6301634;28;20051;-79
2023/09/21 11:19:34;;;;;;;3.10;1.63;;;27.10;95.10;;;;;;6303580;28;20036;-77
2023/09/21 11:22:39;;;;;;;8.73;4.85;;;27.20;94.00;;;;;;6290379;28;20051;-77
2023/09/21 11:25:42;;;;;;;3.90;3.53;;;27.20;93.40;;;;;;6292307;28;20037;-77
2023/09/21 11:28:44;;;;;;;5.78;2.25;;;27.30;92.80;;;;;;6290817;28;20045;-79
2023/09/21 11:31:49;;;;;;;3.20;2.53;;;27.40;92.10;;;;;;6297012;28;20044;-78
2023/09/21 11:34:58;;;;;;;1.95;1.02;;;27.50;91.70;;;;;;6302300;28;20048;-80
2023/09/21 11:38:01;;;;;;;3.83;0.95;;;27.70;90.90;;;;;;6301716;28;20416;-79
2023/09/21 11:41:04;;;;;;;1.73;1.60;;;27.60;90.50;;;;;;6296356;28;20036;-79
2023/09/21 11:44:07;;;;;;;2.83;1.77;;;27.50;90.50;;;;;;6283648;28;20041;-79
2023/09/21 11:47:10;;;;;;;2.53;1.58;;;27.50;90.30;;;;;;6293268;28;20048;-78
2023/09/21 11:50:12;;;;;;;3.78;1.20;;;27.40;90.20;;;;;;6301105;28;20043;-78
2023/09/21 11:53:19;;;;;;;2.22;1.10;;;27.40;90.20;;;;;;6301191;28;20048;-79
2023/09/21 11:56:21;;;;;;;3.38;1.25;;;27.30;90.00;;;;;;6301616;28;20054;-79
2023/09/21 11:59:23;;;;;;;3.65;1.60;;;27.10;90.20;;;;;;6302996;28;20047;-79
2023/09/21 12:02:24;;;;;;;1.45;1.30;;;27.20;90.20;;;;;;6301400;28;20045;-79
2023/09/21 12:05:26;;;;;;;2.03;1.35;;;27.20;90.00;;;;;;6301398;28;20075;-78
2023/09/21 12:08:29;;;;;;;1.83;1.52;;;27.00;89.40;;;;;;6301868;28;20056;-79
2023/09/21 12:11:31;;;;;;;1.35;1.08;;;27.10;89.30;;;;;;6296402;28;20054;-79
2023/09/21 12:14:34;;;;;;;1.42;0.98;;;27.20;89.00;;;;;;6300962;28;20041;-79
2023/09/21 12:17:36;;;;;;;1.75;1.17;;;27.30;88.20;;;;;;6300367;28;20045;-80
2023/09/21 12:20:42;;;;;;;2.10;1.02;;;27.40;88.00;;;;;;6300841;28;20526;-79
2023/09/21 12:23:46;;;;;;;1.02;0.82;;;27.40;87.80;;;;;;6300356;28;20125;-79
2023/09/21 12:26:51;;;;;;;2.13;1.00;;;27.30;88.00;;;;;;6304534;28;20056;-78
2023/09/21 12:29:53;;;;;;;3.67;1.25;;;27.20;88.00;;;;;;6301136;28;20032;-78
2023/09/21 12:32:56;;;;;;;3.17;1.00;;;27.10;87.90;;;;;;6299757;28;20048;-79
2023/09/21 12:35:58;;;;;;;3.95;1.85;;;27.00;88.30;;;;;;6301988;28;20048;-79
2023/09/21 12:39:02;;;;;;;9.02;3.30;;;27.00;88.40;;;;;;6300169;28;20045;-80
2023/09/21 12:42:05;;;;;;;1.85;0.75;;;27.10;88.80;;;;;;6300231;28;20044;-79
2023/09/21 12:45:08;;;;;;;1.05;0.82;;;27.30;88.90;;;;;;6299651;28;20041;-79
2023/09/21 12:48:12;;;;;;;3.90;1.98;;;27.50;88.50;;;;;;6299510;28;20058;-80
2023/09/21 12:51:13;;;;;;;1.67;1.50;;;27.60;88.50;;;;;;6301082;28;20052;-79
2023/09/21 12:54:17;;;;;;;1.75;1.17;;;27.60;88.20;;;;;;6299552;28;20532;-78
2023/09/21 12:57:19;;;;;;;0.93;0.73;;;27.50;88.00;;;;;;6299024;28;20040;-79
2023/09/21 13:00:23;;;;;;;1.42;1.30;;;27.50;88.30;;;;;;6299069;28;20048;-78
2023/09/21 13:03:25;;;;;;;1.55;1.33;;;27.50;88.90;;;;;;6299837;28;20051;-80
2023/09/21 13:06:27;;;;;;;1.10;0.90;;;27.50;88.30;;;;;;6299644;28;20040;-78
2023/09/21 13:09:30;;;;;;;1.52;0.77;;;27.30;88.60;;;;;;6299575;28;20546;-79
2023/09/21 13:12:32;;;;;;;1.77;1.30;;;27.40;88.80;;;;;;6298809;28;20421;-78
2023/09/21 13:15:35;;;;;;;1.55;0.80;;;27.40;88.70;;;;;;6296161;28;20056;-77
2023/09/21 13:18:39;;;;;;;1.20;0.85;;;27.50;88.30;;;;;;6298693;28;20124;-78
2023/09/21 13:21:41;;;;;;;3.20;1.73;;;27.50;88.30;;;;;;6297195;28;20055;-78
2023/09/21 13:24:45;;;;;;;1.42;1.30;;;27.90;88.90;;;;;;6297197;28;20037;-79
2023/09/21 13:27:47;;;;;;;2.40;1.42;;;28.70;87.20;;;;;;6299893;28;20148;-80
2023/09/21 13:30:48;;;;;;;2.65;1.13;;;28.80;85.90;;;;;;6298464;28;20043;-78
2023/09/21 13:33:51;;;;;;;1.90;1.13;;;29.10;85.60;;;;;;6298489;28;20639;-80
2023/09/21 13:36:52;;;;;;;2.03;1.00;;;29.50;84.50;;;;;;6296992;28;20045;-80
2023/09/21 13:39:55;;;;;;;1.90;1.00;;;29.60;83.40;;;;;;6301251;28;20051;-79
2023/09/21 13:42:58;;;;;;;2.25;1.20;;;29.80;82.60;;;;;;6298574;28;20060;-78
2023/09/21 13:45:59;;;;;;;3.95;1.52;;;29.90;81.80;;;;;;6298729;28;20051;-78
2023/09/21 13:49:02;;;;;;;1.40;0.93;;;29.90;80.10;;;;;;6298888;28;20041;-78
2023/09/21 13:52:04;;;;;;;1.50;0.75;;;29.90;79.20;;;;;;6299221;28;20040;-80
2023/09/21 13:55:09;;;;;;;1.38;1.00;;;29.70;78.30;;;;;;6298571;28;20368;-79
2023/09/21 13:58:11;;;;;;;1.00;0.90;;;29.40;78.30;;;;;;6299150;28;20052;-77
2023/09/21 14:01:13;;;;;;;2.00;0.80;;;29.00;78.50;;;;;;6298405;28;20044;-79
2023/09/21 14:04:14;;;;;;;2.47;1.00;;;28.70;79.60;;;;;;6298107;28;20049;-81
2023/09/21 14:07:16;;;;;;;2.35;1.10;;;28.40;80.10;;;;;;6291089;28;20107;-78
2023/09/21 14:10:19;;;;;;;2.45;1.25;;;28.20;80.40;;;;;;6298530;28;20044;-78
2023/09/21 14:13:21;;;;;;;1.38;0.98;;;28.00;80.30;;;;;;6298792;28;20040;-80
2023/09/21 14:16:22;;;;;;;3.13;0.73;;;27.80;80.80;;;;;;6298792;28;20512;-78
2023/09/21 14:19:24;;;;;;;3.65;1.00;;;27.70;81.10;;;;;;6299037;28;20094;-78
2023/09/21 14:22:26;;;;;;;1.88;1.10;;;27.70;81.80;;;;;;6298962;28;20050;-79
2023/09/21 14:25:29;;;;;;;1.30;0.90;;;27.70;81.60;;;;;;6299056;28;20104;-77
2023/09/21 14:28:31;;;;;;;2.55;0.70;;;27.70;81.60;;;;;;6304046;28;20048;-78
2023/09/21 14:31:33;;;;;;;2.30;1.20;;;27.70;81.60;;;;;;6304064;28;20040;-79
2023/09/21 14:34:36;;;;;;;1.27;0.80;;;27.60;81.30;;;;;;6303515;28;20045;-79
2023/09/21 14:37:38;;;;;;;1.85;0.90;;;27.50;81.00;;;;;;6303518;28;20083;-78
2023/09/21 14:40:42;;;;;;;2.90;1.17;;;27.50;81.00;;;;;;6304294;28;20044;-77
2023/09/21 14:43:43;;;;;;;1.13;0.70;;;27.40;81.10;;;;;;6301341;28;20052;-78
2023/09/21 14:46:45;;;;;;;2.00;1.13;;;27.50;81.50;;;;;;6300519;28;20056;-78
2023/09/21 14:49:47;;;;;;;3.60;1.33;;;27.60;81.60;;;;;;6293181;28;20041;-79
2023/09/21 14:52:50;;;;;;;2.00;1.42;;;27.70;81.30;;;;;;6296291;28;20105;-78
2023/09/21 14:55:55;;;;;;;1.40;0.90;;;27.70;81.10;;;;;;6300256;28;20131;-78
2023/09/21 14:58:57;;;;;;;1.67;0.82;;;27.70;80.90;;;;;;6303501;28;20075;-79
2023/09/21 15:02:00;;;;;;;2.33;1.70;;;27.80;80.60;;;;;;6305904;28;20051;-79
2023/09/21 15:05:02;;;;;;;1.80;1.52;;;27.80;81.60;;;;;;6304732;28;20563;-78
2023/09/21 15:08:04;;;;;;;2.65;1.33;;;27.80;82.90;;;;;;6305588;28;20055;-78
2023/09/21 15:11:07;;;;;;;2.65;1.20;;;27.70;82.80;;;;;;6304814;28;20054;-80
2023/09/21 15:14:09;;;;;;;2.03;1.65;;;27.40;82.00;;;;;;6299090;28;20044;-77
2023/09/21 15:17:11;;;;;;;1.25;0.95;;;27.20;82.60;;;;;;6304811;28;20049;-80
2023/09/21 15:20:13;;;;;;;2.50;1.05;;;27.20;83.20;;;;;;6304590;28;20128;-78
2023/09/21 15:23:15;;;;;;;2.50;1.17;;;27.10;83.50;;;;;;6304060;28;20044;-79
2023/09/21 15:26:18;;;;;;;1.15;0.98;;;26.80;84.60;;;;;;6303733;28;20719;-79
2023/09/21 15:29:20;;;;;;;3.60;0.80;;;26.60;86.10;;;;;;6293955;28;20040;-77
2023/09/21 15:32:22;;;;;;;1.85;0.82;;;26.50;87.10;;;;;;6302688;28;20080;-78
2023/09/21 15:35:24;;;;;;;1.25;0.88;;;26.50;87.50;;;;;;6299750;28;20044;-78
2023/09/21 15:38:26;;;;;;;1.38;0.80;;;26.30;87.00;;;;;;6301680;28;20048;-80
2023/09/21 15:41:29;;;;;;;2.47;0.90;;;26.00;87.40;;;;;;6302517;28;20045;-78
2023/09/21 15:44:31;;;;;;;2.35;1.20;;;26.00;87.70;;;;;;6300528;28;20037;-79
2023/09/21 15:47:34;;;;;;;1.17;0.90;;;26.00;88.50;;;;;;6302643;28;20507;-80
2023/09/21 15:50:36;;;;;;;3.47;1.08;;;25.70;89.60;;;;;;6302928;28;20453;-78
2023/09/21 15:53:37;;;;;;;7.90;1.50;;;25.50;90.40;;;;;;6301970;28;20044;-78